Date,TemperatureHighF,TemperatureAvgF,TemperatureLowF,DewpointHighF,DewpointAvgF,DewpointLowF,HumidityHigh,HumidityAvg,HumidityLow,PressureMaxIn,PressureMinIn,WindSpeedMaxMPH,WindSpeedAvgMPH,GustSpeedMaxMPH,PrecipitationSumIn
2013-1-1,55.2,43.2,34.8,40.3,35.6,28.8,91,76,43,25.01,24.74,18,0,18,0.00
2013-1-2,55.4,40.8,31.8,37.7,32.7,28.9,90,75,43,25.05,24.50,15,1,15,0.01
2013-1-3,52.6,39.5,31.5,41.7,34.6,28.9,92,83,61,25.23,24.54,11,0,11,0.01
2013-1-4,56.9,42.4,34.4,39.8,35.9,31.8,92,79,50,25.04,24.55,7,0,7,0.01
2013-1-5,49.7,43.7,35.8,44.6,40.5,33.0,91,89,81,25.05,24.68,16,0,16,0.37
2013-1-6,53.9,46.9,41.5,46.9,43.1,38.9,91,87,73,25.23,24.75,19,1,19,0.01
2013-1-7,60.9,46.8,38.0,50.7,42.7,35.6,93,86,66,25.02,21.36,9,0,9,0.00
2013-1-8,54.4,44.8,38.4,47.0,41.1,36.0,93,87,74,24.95,21.37,8,0,9,0.01
2013-1-9,55.6,45.9,40.0,50.1,41.0,36.0,93,83,70,31.12,24.63,20,1,20,0.01
2013-1-10,52.3,44.2,34.4,38.9,34.8,31.5,90,70,54,31.12,21.38,16,1,16,0.00
2013-1-11,52.3,44.9,35.9,41.5,35.9,30.1,89,71,58,28.50,21.40,17,1,17,0.00
2013-1-12,55.8,40.3,30.5,36.3,30.6,22.4,92,72,33,24.95,24.63,7,0,7,0.01
2013-1-13,51.9,36.7,26.6,34.4,28.5,20.5,91,75,36,24.96,24.62,6,0,6,0.00
2013-1-14,53.6,40.8,29.6,32.1,23.9,16.1,87,55,28,28.51,21.40,12,0,12,0.00
2013-1-15,50.5,38.6,30.4,36.2,31.1,27.8,91,76,49,28.50,24.63,11,1,11,0.01
2013-1-16,56.7,40.1,29.3,37.9,32.4,26.5,92,76,44,25.00,21.40,10,0,10,0.00
2013-1-17,59.7,42.5,31.5,40.4,34.2,28.6,95,75,43,25.01,24.63,14,0,14,0.00
2013-1-18,62.7,44.9,33.3,41.5,35.0,30.4,92,71,38,25.01,21.40,11,0,11,0.01
2013-1-19,62.2,45.1,33.0,41.4,34.4,29.8,91,69,40,24.99,21.37,15,1,15,0.00
2013-1-20,64.7,43.1,33.7,39.1,33.5,30.0,89,72,34,25.01,21.41,13,0,13,0.00
2013-1-21,59.7,43.6,32.0,42.1,35.8,28.7,90,76,45,28.50,21.37,13,0,13,0.01
2013-1-22,57.8,46.9,36.7,44.5,39.1,33.8,92,76,52,26.61,21.33,14,1,14,0.00
2013-1-23,52.1,48.7,46.7,47.5,45.0,42.4,91,87,81,24.80,21.38,11,0,11,0.30
2013-1-24,57.2,52.1,48.5,51.7,48.6,46.0,92,88,81,24.80,21.38,8,0,8,0.00
2013-1-25,65.7,55.6,48.4,55.4,50.7,45.9,93,84,68,26.61,24.80,7,0,7,0.01
2013-1-26,56.9,51.8,47.4,49.1,44.1,40.0,90,76,55,24.80,21.40,24,3,24,0.00
2013-1-27,57.7,47.4,38.3,42.1,38.0,33.6,86,71,44,25.00,24.61,16,1,16,0.00
2013-1-28,59.2,50.0,44.4,45.0,40.6,35.5,84,71,51,25.00,24.63,17,2,17,0.00
2013-1-29,64.1,49.8,41.6,46.4,41.7,37.8,88,75,49,24.80,24.63,14,0,14,0.00
2013-1-30,64.8,48.8,39.1,48.8,42.2,36.4,93,79,51,24.80,24.62,5,0,5,0.01
2013-1-31,63.4,48.3,37.6,47.9,42.0,34.9,93,80,56,24.80,24.65,12,0,12,0.00
2013-2-1,66.7,50.3,39.9,47.5,42.4,37.2,93,76,47,29.78,21.41,16,1,16,0.01
2013-2-2,66.2,49.3,42.0,50.1,43.8,39.1,91,82,55,24.80,21.38,7,0,7,0.01
2013-2-3,64.8,49.3,40.5,49.2,43.2,37.4,91,80,56,24.93,21.34,9,0,9,0.00
2013-2-4,59.7,47.3,40.1,51.0,43.5,37.3,91,87,72,31.12,24.64,7,0,7,0.01
2013-2-5,57.4,49.4,41.4,48.2,44.0,38.4,91,82,70,24.80,21.39,19,2,19,0.01
2013-2-6,62.4,47.3,37.3,46.5,40.4,34.5,92,78,49,28.87,21.36,14,1,14,0.01
2013-2-7,55.9,47.5,39.0,46.3,41.1,35.9,92,80,53,28.50,21.38,16,1,16,0.31
2013-2-8,56.9,46.0,36.2,42.2,37.8,31.3,92,75,48,28.50,21.38,18,1,18,0.01
2013-2-9,65.8,46.5,33.6,37.3,32.5,25.9,92,62,27,24.87,21.38,7,0,7,0.00
2013-2-10,65.8,45.7,32.2,44.3,35.7,29.0,92,71,36,24.87,21.33,9,0,9,0.00
2013-2-11,70.6,49.4,35.3,42.5,34.9,29.0,86,63,25,31.12,24.63,13,0,13,0.00
2013-2-12,60.5,47.1,36.2,45.2,38.6,33.3,91,75,41,30.60,21.39,10,1,10,0.00
2013-2-13,71.5,49.2,35.9,48.5,41.2,33.0,91,76,41,24.80,21.40,8,0,8,0.00
2013-2-14,74.8,52.2,38.9,49.1,42.3,36.2,92,73,38,24.80,24.67,8,0,8,0.01
2013-2-15,70.5,53.3,41.1,45.8,41.7,37.8,90,69,37,24.80,21.36,11,1,11,0.00
2013-2-16,68.3,53.2,41.4,47.3,42.8,38.3,91,71,38,24.80,21.40,9,1,9,0.01
2013-2-17,71.5,51.6,41.8,48.2,42.5,38.5,90,74,39,24.80,21.37,7,0,7,0.00
2013-2-18,55.2,46.9,40.2,42.9,39.7,37.0,90,76,60,24.80,21.36,17,2,17,0.01
2013-2-19,50.7,45.1,38.1,43.2,38.3,32.8,92,77,58,24.87,21.36,18,1,18,0.20
2013-2-20,58.4,45.2,35.5,42.2,36.6,31.5,92,73,46,24.98,21.37,17,1,17,0.00
2013-2-21,61.4,48.4,37.1,40.7,37.2,32.0,88,68,34,24.99,21.36,19,1,19,0.00
2013-2-22,66.8,48.9,36.5,46.9,40.3,33.5,91,75,34,24.96,21.37,18,1,18,0.00
2013-2-23,58.3,50.7,43.8,47.0,38.9,30.2,86,65,41,24.90,24.61,23,2,23,0.00
2013-2-24,71.1,53.0,42.5,37.8,29.7,23.1,75,43,20,24.98,21.39,13,1,13,0.00
2013-2-25,68.1,49.8,39.2,46.7,40.4,35.4,92,72,44,24.99,24.63,13,1,13,0.00
2013-2-26,71.2,40.3,35.1,40.0,34.3,26.6,90,82,20,24.91,21.29,3,0,13,0.00
2013-2-27,74.2,51.3,36.0,46.1,39.5,31.9,88,67,28,24.80,24.63,13,0,13,0.00
2013-2-28,69.5,56.1,48.3,53.3,48.6,44.4,87,77,54,31.12,22.10,16,1,16,0.00
2013-3-1,75.5,56.3,43.2,53.9,46.7,40.3,92,73,34,28.50,21.47,9,0,9,0.00
2013-3-2,69.1,57.6,47.5,54.2,49.3,43.9,89,75,54,24.80,24.80,11,0,11,0.01
2013-3-3,68.8,55.9,47.3,50.3,47.1,42.8,88,74,44,24.80,24.80,14,1,14,0.00
2013-3-4,63.7,50.3,42.4,49.2,43.4,38.3,87,78,57,24.80,21.41,13,1,13,0.00
2013-3-5,57.4,47.8,37.3,46.2,41.5,34.4,90,79,62,24.80,21.36,40,3,40,0.49
2013-3-6,60.2,51.6,41.7,47.2,42.6,37.9,88,72,49,24.80,21.35,33,3,40,0.26
2013-3-7,56.7,47.7,39.5,46.2,41.6,36.5,90,80,55,24.80,21.35,10,0,10,0.01
2013-3-8,57.9,44.7,40.8,45.0,40.1,36.9,87,84,60,24.80,21.32,8,0,26,0.00
2013-3-9,70.7,52.8,40.2,44.0,40.8,36.9,89,67,31,24.80,21.38,14,0,14,0.00
2013-3-10,77.2,54.5,38.9,49.4,40.9,34.1,91,66,27,24.80,21.37,11,0,11,0.01
2013-3-11,78.8,55.1,39.6,48.9,43.0,36.6,90,68,31,28.50,21.38,10,0,10,0.00
2013-3-12,75.3,55.9,43.0,54.6,47.0,40.0,91,75,40,31.12,22.10,6,0,6,0.00
2013-3-13,81.5,59.6,43.3,55.6,48.8,40.2,92,71,35,29.50,24.72,9,0,9,0.01
2013-3-14,72.3,57.6,47.0,56.9,46.9,40.7,90,70,34,24.80,21.47,17,1,17,0.00
2013-3-15,76.8,56.3,44.8,53.2,46.8,40.6,87,72,41,24.80,24.69,19,1,19,0.00
2013-3-16,72.7,55.9,45.4,52.4,45.5,42.2,91,71,37,24.80,24.80,21,2,21,0.00
2013-3-17,73.2,55.3,45.4,47.0,42.2,38.1,84,64,30,24.80,24.80,15,1,15,0.00
2013-3-18,70.2,54.6,41.0,50.1,43.6,37.4,92,69,44,24.80,24.71,14,0,14,0.00
2013-3-19,66.7,54.5,46.2,50.9,45.3,38.0,87,72,49,24.80,24.80,18,0,18,0.03
2013-3-20,64.8,54.6,48.7,54.9,49.1,44.5,92,82,68,24.80,24.80,19,1,21,0.02
2013-3-21,68.4,52.8,41.1,47.7,42.3,37.5,88,69,43,24.80,24.80,10,1,14,0.00
2013-3-22,68.8,52.2,37.5,41.0,35.7,23.1,89,60,20,24.80,21.38,13,1,14,0.00
2013-3-23,72.5,53.3,38.1,45.2,37.2,26.6,86,59,23,24.80,21.38,11,0,11,0.00
2013-3-24,75.6,55.2,41.3,49.8,42.8,37.7,92,66,37,24.80,24.72,11,0,11,0.00
2013-3-25,61.6,50.9,42.4,47.1,43.0,38.8,88,75,57,24.80,24.73,22,1,22,0.00
2013-3-26,74.6,55.6,44.9,52.1,45.2,40.7,85,70,44,29.78,24.50,7,1,10,0.00
2013-3-27,62.9,55.1,49.1,53.7,48.6,42.5,84,79,70,24.80,24.80,15,1,15,0.00
2013-3-28,69.0,58.5,52.0,55.2,51.4,48.2,88,78,59,31.12,22.10,11,1,11,0.00
2013-3-29,81.3,60.8,45.8,56.5,50.4,43.0,91,71,38,31.12,17.59,17,1,17,0.00
2013-3-30,73.3,60.2,53.5,55.9,51.6,46.0,88,75,39,31.27,24.54,17,1,17,0.09
2013-3-31,67.3,58.5,54.3,58.5,52.9,51.0,90,82,60,24.80,24.80,21,1,21,0.12
2013-4-1,68.6,57.9,50.6,56.3,51.7,46.5,92,81,56,24.83,24.76,6,1,13,0.11
2013-4-2,75.5,57.9,46.7,57.6,50.0,43.7,92,77,51,29.78,21.39,9,0,9,0.04
2013-4-3,81.4,57.7,46.6,58.0,49.7,43.1,90,77,36,29.78,22.05,9,0,9,0.00
2013-4-4,63.1,56.5,51.6,57.0,52.5,47.2,92,86,79,24.96,21.47,24,2,24,0.56
2013-4-5,66.3,58.1,52.4,55.2,51.5,49.2,92,79,61,31.94,24.80,14,2,16,0.01
2013-4-6,70.3,58.9,53.6,57.2,51.7,48.6,87,78,59,24.95,21.47,15,1,15,0.00
2013-4-7,65.3,57.3,51.9,54.8,49.8,42.6,87,77,57,31.12,24.80,27,3,33,0.03
2013-4-8,66.2,54.9,47.5,45.7,40.6,32.4,80,60,35,30.97,21.95,29,4,35,0.00
2013-4-9,75.7,62.3,48.3,47.2,41.1,34.9,72,48,26,29.78,21.47,14,2,14,0.00
2013-4-10,87.8,64.4,51.4,54.4,49.3,43.5,82,61,31,31.12,21.47,22,2,22,0.00
2013-4-11,74.8,58.8,48.5,51.4,46.7,43.1,86,66,33,30.69,21.47,17,2,17,0.00
2013-4-12,78.7,57.5,45.5,56.0,46.6,41.9,89,69,39,31.68,18.14,15,1,15,0.00
2013-4-13,64.5,55.4,47.5,49.2,44.1,40.2,84,66,51,30.67,24.76,21,2,21,0.00
2013-4-14,65.8,53.4,44.0,46.4,40.4,34.0,85,64,33,30.69,24.76,28,3,28,0.00
2013-4-15,57.3,50.6,44.2,46.4,39.9,35.5,85,68,50,30.76,23.94,33,4,33,0.00
2013-4-16,65.7,53.3,41.0,42.5,36.3,28.8,77,56,29,29.78,18.14,24,2,24,0.00
2013-4-17,70.3,59.6,47.6,40.8,34.7,26.8,67,41,21,30.60,21.47,17,2,17,0.00
2013-4-18,82.9,62.8,45.5,44.7,39.6,34.0,71,46,23,31.08,20.61,13,1,13,0.00
2013-4-19,84.3,62.9,47.1,54.6,47.4,42.0,85,60,31,31.12,21.47,18,1,18,0.00
2013-4-20,83.0,64.1,50.5,50.6,45.2,41.3,78,54,24,29.78,20.65,10,1,13,0.00
2013-4-21,93.7,67.4,47.4,55.6,45.9,40.9,87,53,19,31.92,22.10,10,0,10,0.00
2013-4-22,94.3,70.5,52.0,54.5,47.0,39.3,83,49,17,31.92,20.58,13,1,13,0.00
2013-4-23,84.6,67.8,50.9,47.1,37.4,23.0,79,37,12,31.08,21.43,28,2,28,0.00
2013-4-24,74.8,56.6,45.8,53.9,47.5,41.8,87,73,45,31.68,18.14,17,2,17,0.00
2013-4-25,65.2,55.7,48.9,52.6,48.5,44.8,89,77,61,31.12,17.59,16,2,16,0.00
2013-4-26,75.5,57.3,49.8,55.5,48.4,44.4,85,73,47,30.65,18.14,12,1,12,0.00
2013-4-27,80.8,58.5,46.8,57.5,48.5,42.8,87,72,38,30.76,17.59,13,1,13,0.00
2013-4-28,92.3,65.5,46.5,58.7,49.8,42.8,88,61,29,31.12,21.47,12,0,12,0.00
2013-4-29,90.1,69.3,54.7,59.2,52.1,45.9,84,58,29,31.08,21.47,17,1,17,0.00
2013-4-30,84.2,66.6,50.9,51.1,45.3,19.0,81,51,16,31.08,21.43,13,1,13,0.00
2013-5-1,90.6,72.2,55.3,41.6,29.1,18.2,41,22,9,31.08,18.12,15,1,15,0.00
2013-5-2,94.5,68.3,50.6,44.7,33.4,17.7,66,34,11,31.08,21.42,10,0,15,0.00
2013-5-3,96.0,71.8,52.1,46.9,38.0,27.8,61,32,14,31.10,20.60,12,1,12,0.00
2013-5-4,91.0,68.0,52.8,51.3,47.3,38.4,78,53,18,32.49,22.05,14,1,14,0.00
2013-5-5,66.7,59.4,54.4,52.7,50.0,47.9,80,71,59,32.49,21.39,28,3,28,0.00
2013-5-6,73.8,63.0,53.1,54.6,50.8,48.3,85,66,44,30.01,21.47,14,1,14,0.00
2013-5-7,76.7,63.2,55.3,54.8,51.7,47.5,82,68,38,31.62,16.48,15,1,15,0.00
2013-5-8,68.5,57.2,53.0,54.1,50.0,47.7,86,77,60,31.68,19.85,17,1,17,0.00
2013-5-9,66.8,57.4,51.6,53.2,49.2,46.8,84,75,59,28.29,16.07,14,2,14,0.00
2013-5-10,79.0,60.6,51.7,58.4,51.2,47.6,87,73,46,29.54,18.14,17,1,17,0.00
2013-5-11,88.1,65.1,51.0,61.9,53.2,46.8,88,68,39,31.16,21.42,11,1,11,0.00
2013-5-12,80.5,64.0,50.1,60.9,51.0,43.8,88,65,31,32.47,18.12,18,1,18,0.00
2013-5-13,81.0,64.2,49.0,58.6,51.3,44.3,86,65,45,31.12,16.48,16,1,16,0.00
2013-5-14,78.5,64.1,53.2,55.8,49.6,45.1,82,62,37,32.49,22.00,15,2,15,0.00
2013-5-15,67.8,58.5,50.4,49.7,46.6,43.4,81,66,43,31.12,22.00,22,3,22,0.00
2013-5-16,70.8,60.4,54.5,56.0,50.9,47.0,83,72,52,31.12,20.60,22,3,22,0.00
2013-5-17,67.2,58.4,50.9,49.8,46.4,43.0,83,66,47,32.46,19.50,23,2,23,0.00
2013-5-18,75.2,60.9,49.1,53.9,48.9,44.5,85,66,41,31.08,21.47,21,2,21,0.00
2013-5-19,86.8,66.9,49.5,49.5,45.6,38.8,83,51,21,31.67,21.31,16,1,16,0.00
2013-5-20,90.8,68.6,51.3,53.6,45.1,32.7,79,50,14,31.90,21.31,16,1,16,0.00
2013-5-21,66.8,58.3,51.2,50.6,45.2,37.7,76,62,48,31.12,20.64,33,4,33,0.00
2013-5-22,62.7,55.2,48.3,43.9,36.8,27.8,74,51,28,32.07,19.85,21,3,21,0.00
2013-5-23,74.5,57.6,47.8,47.4,43.3,40.9,80,61,37,31.12,16.48,18,2,18,0.00
2013-5-24,76.6,57.8,46.8,48.6,44.2,41.2,81,63,36,31.12,17.47,25,2,25,0.00
2013-5-25,73.5,57.3,48.5,50.7,46.4,42.8,83,69,42,31.68,21.47,30,3,32,0.00
2013-5-26,71.5,60.7,53.5,52.7,50.7,48.0,86,71,49,32.49,21.47,24,3,24,0.00
2013-5-27,64.4,58.9,53.7,55.6,52.4,47.8,88,79,70,31.12,17.59,15,2,15,0.02
2013-5-28,69.7,61.8,55.9,57.4,52.9,48.4,90,74,55,31.12,21.42,17,2,17,0.01
2013-5-29,70.8,61.6,54.1,55.0,50.9,46.6,82,68,54,32.42,17.32,23,3,23,0.00
2013-5-30,74.0,61.2,49.6,49.3,46.7,44.6,84,61,38,31.12,20.60,19,2,19,0.00
2013-5-31,88.4,67.8,49.0,56.0,48.0,42.8,82,54,21,32.28,23.29,17,1,17,0.00
2013-6-1,95.3,71.2,53.9,56.9,50.0,45.6,76,50,25,31.93,17.20,13,1,13,0.00
2013-6-2,89.9,67.5,53.4,57.2,51.0,47.2,81,59,28,29.54,17.20,15,1,15,0.00
2013-6-3,70.1,61.4,52.6,54.2,51.2,47.9,84,70,55,31.67,23.45,16,2,16,0.00
2013-6-4,68.3,59.8,52.8,54.5,51.1,47.9,85,74,59,32.41,17.27,17,2,17,0.00
2013-6-5,79.7,61.9,53.7,56.8,51.6,48.4,84,71,45,31.12,17.45,16,1,16,0.00
2013-6-6,84.3,63.9,52.8,58.4,52.5,47.8,85,69,41,32.34,17.59,12,1,12,0.00
2013-6-7,100.5,70.5,53.1,63.6,54.7,48.3,86,62,24,29.78,21.47,8,0,10,0.00
2013-6-8,92.2,72.8,59.4,60.6,56.0,52.7,82,59,32,32.49,26.54,14,1,14,0.00
2013-6-9,70.1,61.4,57.3,56.7,53.8,52.3,84,77,60,31.67,21.43,21,3,21,0.00
2013-6-10,66.0,60.5,56.6,54.3,53.0,50.3,87,77,65,31.10,20.65,19,2,19,0.00
2013-6-11,82.0,65.4,55.7,58.2,52.2,44.7,83,64,43,31.12,21.31,13,1,13,0.00
2013-6-12,77.8,63.0,50.4,53.2,47.7,44.4,82,59,37,31.37,18.28,19,2,19,0.00
2013-6-13,80.8,64.3,50.5,52.7,47.0,43.6,79,56,31,31.97,23.84,18,1,18,0.00
2013-6-14,90.7,69.3,52.3,53.5,47.1,38.8,79,50,21,31.12,21.31,15,1,15,0.00
2013-6-15,79.8,62.1,51.4,55.7,49.7,45.9,85,66,42,29.78,20.61,20,2,20,0.00
2013-6-16,77.5,64.4,49.9,53.8,49.4,44.8,84,60,39,31.68,20.60,23,3,23,0.00
2013-6-17,71.4,62.5,54.0,56.4,52.4,48.3,84,70,57,31.08,20.60,22,3,22,0.00
2013-6-18,69.3,60.4,55.1,52.3,50.2,45.8,84,70,50,31.10,26.27,27,5,27,0.00
2013-6-19,57.7,54.1,52.7,49.5,48.3,47.5,83,81,73,31.68,25.17,15,1,15,0.00
2013-8-8,76.7,63.5,55.4,59.6,54.7,51.0,85,74,54,30.03,28.06,11,2,14,0.00
2013-8-9,75.3,63.7,55.9,57.5,54.4,51.1,85,73,53,28.45,28.06,9,2,17,0.00
2013-8-10,79.6,64.5,57.8,60.0,55.7,53.3,85,74,51,28.06,28.06,7,2,15,0.00
2013-8-11,80.9,65.7,56.5,59.8,54.7,51.9,86,70,42,31.77,28.06,6,1,16,0.00
2013-8-12,83.5,66.0,54.4,59.6,53.9,50.0,86,68,39,28.82,28.82,7,1,11,0.00
2013-8-13,95.3,69.2,51.9,60.5,53.3,48.2,87,61,28,31.62,28.06,8,1,13,0.00
2013-8-14,84.4,74.7,54.2,60.9,57.3,48.5,84,58,34,30.80,26.39,18,2,18,0.00
2013-8-15,84.1,69.3,62.2,65.7,61.0,57.6,86,76,53,29.64,26.39,16,1,16,0.00
2013-8-16,89.0,69.9,59.8,64.2,58.7,54.0,88,70,40,28.10,25.97,16,1,16,0.00
2013-8-17,83.0,68.3,57.8,59.7,56.4,52.6,84,68,40,32.01,25.71,16,1,16,0.00
2013-8-18,96.7,74.5,56.7,64.7,58.1,52.6,87,61,31,28.06,24.11,12,1,12,0.00
2013-8-19,95.1,76.2,63.5,64.4,58.9,51.4,82,59,27,29.35,24.11,11,1,11,0.00
2013-8-20,89.9,70.1,60.9,61.6,56.5,47.5,84,65,33,28.06,24.11,13,1,13,0.00
2013-8-21,87.7,66.4,56.2,59.2,54.8,51.5,85,69,35,32.01,25.74,15,1,15,0.00
2013-8-22,78.2,63.8,56.4,58.5,53.9,51.5,84,72,48,32.01,25.04,17,2,17,0.00
2013-8-23,82.8,65.8,57.1,60.1,55.0,52.3,84,70,44,32.01,24.11,14,1,14,0.00
2013-8-24,80.8,67.1,55.7,59.9,56.2,51.0,85,70,47,28.71,24.46,22,2,22,0.00
2013-8-25,82.4,70.3,62.7,64.4,60.1,56.2,84,72,47,32.01,17.45,18,2,18,0.00
2013-8-26,79.8,66.8,61.0,61.4,55.6,49.8,84,69,42,32.01,25.04,18,2,18,0.00
2013-8-27,85.7,66.9,54.9,59.7,55.6,50.5,87,69,38,32.08,25.64,20,2,20,0.00
2013-8-28,83.2,68.6,59.4,64.2,59.7,54.9,87,75,50,29.38,25.30,13,1,13,0.00
2013-8-29,83.9,70.0,61.2,63.9,60.3,56.8,86,73,47,32.01,25.97,10,1,15,0.00
2013-8-30,92.4,72.9,61.0,64.7,59.3,55.5,87,65,37,32.01,25.23,15,1,15,0.00
2013-8-31,81.0,68.0,57.5,60.9,56.6,52.1,85,69,43,32.01,25.74,15,1,15,0.00
2013-9-1,82.5,69.0,60.6,61.2,57.1,53.4,81,68,39,32.08,17.05,17,1,17,0.00
2013-9-2,84.3,70.9,64.5,64.6,61.0,55.1,84,72,51,32.01,25.97,16,2,16,0.00
2013-9-3,78.3,67.8,58.6,58.7,55.4,49.3,86,66,41,32.01,19.47,19,2,19,0.00
2013-9-4,77.8,66.9,57.9,58.9,56.5,53.6,87,71,45,32.01,24.09,19,2,19,0.00
2013-9-5,77.3,66.7,58.6,57.4,55.2,52.1,86,68,44,32.01,24.32,22,2,22,0.00
2013-9-6,93.5,71.8,54.1,57.7,50.9,43.2,87,54,19,32.01,24.11,14,0,14,0.00
2013-9-7,100.3,75.2,56.6,59.9,51.6,46.5,77,48,17,30.03,25.27,13,0,13,0.00
2013-9-8,94.6,71.4,55.3,62.7,55.7,50.6,86,61,32,29.24,25.97,10,0,10,0.00
2013-9-9,96.3,71.3,54.3,62.7,55.3,48.3,87,62,21,32.01,25.04,15,1,15,0.00
2013-9-10,75.9,65.2,56.6,61.0,57.4,52.4,87,76,59,29.59,25.71,16,1,16,0.00
2013-9-11,73.8,66.7,63.9,59.8,58.6,57.4,82,75,61,32.01,18.26,17,2,17,0.00
2013-9-12,84.8,66.8,59.6,64.5,58.7,53.8,85,76,48,32.01,25.74,15,1,15,0.00
2013-9-13,83.0,64.5,56.5,61.2,55.4,52.4,87,74,40,32.01,25.74,15,1,15,0.00
2013-9-14,73.7,62.7,56.3,59.1,55.1,52.2,86,77,57,27.25,24.35,15,2,17,0.00
2013-9-15,79.7,66.5,56.0,60.2,56.3,51.4,86,72,47,28.06,24.35,16,2,16,0.00
2013-9-16,82.7,66.5,57.6,61.7,56.6,53.8,88,72,44,30.80,25.32,19,2,19,0.00
2013-9-17,71.3,63.7,57.0,55.9,53.6,49.6,85,70,55,32.01,19.47,27,3,27,0.00
2013-9-18,85.7,66.0,52.6,53.7,48.6,43.9,84,57,27,32.01,25.23,15,1,16,0.00
2013-9-19,94.4,67.6,50.5,57.6,48.9,42.8,84,57,18,32.01,20.26,12,0,12,0.00
2013-9-20,74.6,63.5,54.0,61.5,55.6,46.6,85,76,60,28.06,26.41,21,2,21,0.00
2013-9-21,69.7,63.0,58.4,61.3,56.7,51.4,90,81,59,32.01,25.43,20,2,21,0.51
2013-9-22,75.5,62.3,52.2,57.5,53.3,48.4,92,74,45,32.01,24.11,22,2,22,0.01
2013-9-23,86.5,66.8,53.9,61.8,55.6,49.8,88,69,42,32.01,24.11,17,1,17,0.00
2013-9-24,75.1,64.5,58.4,55.3,52.7,49.6,82,67,46,32.01,25.27,26,3,26,0.00
2013-9-25,69.0,60.6,55.5,50.0,47.6,43.6,78,63,45,32.01,19.47,25,3,25,0.00
2013-9-26,77.3,60.5,47.0,47.5,42.4,35.0,77,55,24,32.01,23.86,14,1,14,0.00
2013-9-27,80.8,63.1,48.8,43.8,39.3,34.6,73,45,21,28.59,23.86,17,1,17,0.00
2013-9-28,85.8,62.7,48.0,56.0,46.7,26.2,85,61,12,32.49,24.11,14,0,14,0.00
2013-9-29,74.8,64.9,55.1,61.3,57.5,51.1,88,78,62,28.45,23.76,17,1,17,0.00
2013-9-30,77.3,66.8,58.6,62.8,57.3,43.8,87,72,52,32.01,24.11,15,2,15,0.00
2013-10-1,77.8,62.7,53.2,53.8,49.6,45.8,82,64,41,32.01,24.11,13,1,15,0.00
2013-10-2,77.0,60.7,50.8,55.7,47.8,41.9,86,65,39,32.01,18.26,19,1,19,0.00
2013-10-3,76.0,63.4,48.2,42.9,35.6,27.0,74,40,17,32.01,22.28,16,2,16,0.00
2013-10-4,83.8,69.1,56.6,37.4,31.2,24.8,42,25,13,29.24,23.76,21,2,21,0.00
2013-10-5,83.7,64.6,49.6,36.7,33.3,27.0,55,34,15,28.06,20.26,14,1,14,0.00
2013-10-6,83.8,63.3,45.7,42.8,36.8,32.5,64,40,19,31.45,24.11,10,0,10,0.00
2013-10-7,86.8,64.6,48.7,46.5,39.7,22.4,65,44,10,32.01,24.11,17,0,17,0.00
2013-10-8,83.0,60.5,47.6,54.0,46.2,41.3,86,62,27,32.29,20.26,10,0,10,0.00
2013-10-9,75.5,59.3,48.3,49.2,44.5,40.9,83,61,34,28.13,24.11,13,1,13,0.00
2013-10-10,71.4,53.2,49.3,50.9,43.1,39.5,81,69,45,29.36,24.60,9,0,15,0.00
2013-10-11,75.3,46.7,42.5,52.0,42.0,39.2,90,84,43,32.50,24.09,2,0,9,0.00
2013-10-12,74.2,55.5,42.9,52.8,46.0,39.6,90,72,35,32.49,24.11,15,1,15,0.00
2013-10-13,77.9,59.4,45.8,51.8,44.0,38.6,92,61,27,32.50,22.59,14,0,14,0.00
2013-10-14,81.8,59.5,44.3,49.3,40.0,35.8,84,53,23,32.49,24.11,7,0,7,0.00
2013-10-15,84.0,61.2,44.3,43.0,36.1,30.0,77,45,15,32.49,24.11,11,0,11,0.00
2013-10-16,85.3,61.3,44.9,41.4,37.8,33.4,76,46,18,32.49,24.09,9,0,9,0.00
2013-10-17,89.2,62.4,45.2,42.5,36.6,29.2,72,43,16,32.50,24.11,9,0,9,0.00
2013-10-18,85.5,60.1,44.9,53.4,44.1,35.0,84,59,25,32.49,16.24,7,0,7,0.00
2013-10-19,84.8,60.7,44.1,50.9,43.7,37.0,92,60,19,32.50,24.11,9,0,9,0.00
2013-10-20,80.9,57.3,42.6,55.9,46.8,38.8,89,70,38,32.49,24.11,6,0,6,0.00
2013-10-21,73.0,55.4,44.2,54.6,47.5,40.6,92,76,49,32.01,24.11,6,0,6,0.00
2013-10-22,79.1,56.1,45.0,56.8,48.2,41.3,90,77,42,32.50,23.76,5,0,5,0.00
2013-10-23,72.5,53.6,43.3,55.4,46.9,40.0,90,79,53,32.50,23.76,7,0,7,0.01
2013-10-24,71.1,54.1,46.4,52.7,47.1,42.8,89,78,52,32.50,23.45,13,0,13,0.00
2013-10-25,71.5,55.6,45.2,53.4,47.7,42.1,92,76,50,32.50,24.11,7,0,7,0.00
2013-10-26,84.6,58.0,43.3,52.3,44.6,39.0,92,66,28,32.49,24.11,5,0,5,0.01
2013-10-27,62.7,52.0,42.6,51.1,45.0,38.7,92,77,59,32.50,16.12,27,3,27,0.00
2013-10-28,64.4,55.3,47.5,47.9,46.0,42.9,87,72,47,28.06,24.12,20,2,21,0.00
2013-10-29,65.6,53.0,48.1,48.8,46.9,43.5,84,80,53,31.45,24.12,5,0,12,0.00
2013-10-30,71.6,45.7,42.0,52.0,41.5,38.7,90,86,47,32.50,25.97,2,0,10,0.00
2013-10-31,78.5,55.8,41.6,52.4,43.7,37.2,88,67,34,32.50,17.17,11,0,11,0.00
2013-11-1,74.4,56.5,44.3,49.0,44.3,40.1,88,66,37,32.49,24.11,12,0,12,0.00
2013-11-2,74.6,55.4,44.6,54.6,46.5,40.4,86,73,40,28.68,24.11,18,1,18,0.00
2013-11-3,67.8,52.3,40.7,43.8,37.5,27.6,83,61,24,31.12,25.16,12,0,12,0.00
2013-11-4,72.7,53.7,39.2,39.2,34.3,23.4,83,54,16,29.78,20.67,15,1,15,0.00
2013-11-5,78.3,57.3,42.8,41.5,36.8,33.3,73,50,22,32.50,25.16,6,0,6,0.00
2013-11-6,70.3,56.1,44.2,44.0,40.3,37.3,79,58,33,32.49,17.76,12,1,12,0.00
2013-11-7,81.2,60.0,48.4,51.2,44.1,39.4,84,59,25,32.01,24.12,12,0,12,0.00
2013-11-8,76.3,55.7,44.3,55.0,46.1,39.5,90,73,40,32.50,16.89,16,0,16,0.00
2013-11-9,75.8,54.0,41.1,49.8,44.1,37.5,91,72,40,32.48,24.11,12,0,12,0.00
2013-11-10,70.1,53.0,43.0,52.1,45.7,39.6,90,78,50,32.50,17.17,14,0,14,0.00
2013-11-11,66.4,53.7,42.2,52.7,46.8,39.2,92,78,59,32.50,24.12,7,0,7,0.00
2013-11-12,74.8,59.8,53.6,53.4,50.0,47.1,85,71,43,32.09,24.11,5,0,5,0.00
2013-11-13,78.8,57.7,46.4,56.2,49.3,43.0,92,76,44,32.50,23.86,10,0,10,0.00
2013-11-14,67.7,54.5,46.5,55.3,47.7,43.1,90,78,61,31.45,24.12,17,1,17,0.00
2013-11-15,70.7,54.3,44.9,45.3,42.9,39.6,87,68,38,32.50,24.12,15,1,15,0.00
2013-11-16,66.5,52.6,42.8,50.6,45.1,39.1,88,77,49,32.01,24.12,16,1,16,0.00
2013-11-17,66.6,51.3,42.8,49.9,44.8,39.8,92,80,51,31.45,24.12,9,0,9,0.01
2013-11-18,59.4,49.9,40.2,49.7,44.2,37.2,92,81,64,29.48,17.62,11,0,11,0.01
2013-11-19,57.5,55.4,53.0,54.3,51.6,48.3,89,87,83,28.06,19.52,18,1,18,0.66
2013-11-20,60.8,56.4,50.6,56.1,52.7,47.2,90,88,81,26.86,21.36,14,1,15,0.48
2013-11-21,62.9,54.8,48.2,49.4,38.2,24.4,90,59,25,31.60,21.97,21,2,21,0.02
2013-11-22,71.3,57.5,40.6,30.8,24.5,14.4,65,32,14,31.60,19.47,19,2,24,0.00
2013-11-23,65.8,51.4,40.9,38.2,34.2,25.2,82,55,28,31.58,24.12,14,0,14,0.00
2013-11-24,64.2,47.2,36.6,45.3,38.8,33.4,92,74,45,31.12,16.12,6,0,6,0.00
2013-11-25,61.3,47.2,37.2,47.1,40.8,34.2,91,79,57,32.07,17.08,10,0,10,0.00
2013-11-26,60.7,48.8,40.7,44.7,41.1,37.7,94,76,51,32.50,20.65,7,0,7,0.00
2013-11-27,61.7,50.6,41.9,46.8,42.8,38.4,92,76,56,32.50,20.65,15,1,15,0.00
2013-11-28,71.3,53.4,43.1,48.1,42.3,39.4,88,69,35,31.42,17.32,6,0,6,0.00
2013-11-29,67.2,50.9,40.3,47.5,42.2,36.8,94,74,45,31.45,17.17,9,0,9,0.00
2013-11-30,69.9,51.1,42.1,49.5,43.4,38.8,90,77,42,30.60,17.17,4,0,5,0.01
2013-12-1,69.2,51.3,40.3,49.8,43.4,37.3,91,77,45,31.42,17.32,5,0,5,0.00
2013-12-2,65.9,51.8,40.0,52.8,46.4,36.9,92,82,58,32.50,17.32,19,1,19,0.01
2013-12-3,56.4,49.4,37.9,52.3,38.0,30.0,87,66,45,32.50,17.17,17,1,17,0.00
2013-12-4,59.1,39.9,31.1,33.7,27.5,22.5,85,65,28,32.50,20.65,7,0,7,0.00
2013-12-5,51.7,36.5,25.4,33.0,25.0,13.0,85,67,25,32.50,18.14,10,0,10,0.00
2013-12-6,50.3,40.2,27.3,46.6,34.9,24.2,92,82,54,32.50,24.12,22,1,22,0.25
2013-12-7,49.4,41.4,31.3,43.9,31.2,25.4,92,69,41,32.50,20.65,19,1,19,0.22
2013-12-8,47.7,34.6,27.2,31.5,26.5,24.0,89,74,42,32.50,16.51,9,0,9,0.00
2013-12-9,50.9,34.7,25.2,28.9,25.0,21.6,92,71,38,32.50,21.47,14,0,14,0.00
2013-12-10,51.1,37.1,27.5,33.2,28.5,24.1,89,73,45,32.50,21.47,8,0,8,0.01
2013-12-11,54.6,39.6,29.6,36.4,31.0,26.1,89,73,43,32.50,19.85,13,0,13,0.00
2013-12-12,56.3,42.0,31.9,39.2,34.1,28.8,90,75,45,32.50,20.65,7,0,7,0.00
2013-12-13,61.2,43.3,33.5,42.8,37.0,30.6,91,80,47,32.50,17.59,5,0,5,0.01
2013-12-14,58.9,43.1,32.9,42.9,35.6,30.0,91,77,46,32.50,16.51,13,0,13,0.00
2013-12-15,59.3,43.5,34.0,42.5,36.4,31.1,91,78,50,32.50,20.01,10,0,10,0.01
2013-12-16,63.1,47.1,37.5,42.9,37.5,34.2,92,72,40,32.50,21.96,11,0,11,0.00
2013-12-17,62.1,47.9,39.5,44.2,39.6,36.0,88,74,47,32.50,16.90,7,0,7,0.00
2013-12-18,63.4,48.6,38.7,48.0,41.8,35.1,89,78,56,32.50,16.90,22,1,22,0.00
2013-12-19,62.3,49.7,39.1,44.0,35.1,23.1,83,59,33,31.45,20.57,22,1,22,0.00
2013-12-20,65.8,46.1,32.9,39.2,30.0,22.4,79,55,28,31.51,20.65,6,0,6,0.00
2013-12-21,67.5,50.9,42.7,50.7,44.7,39.3,89,80,55,32.50,19.37,6,0,6,0.00
2013-12-22,60.6,47.6,38.6,43.8,38.7,35.6,91,74,44,30.40,21.47,10,0,10,0.01
2013-12-23,61.1,46.8,36.7,43.3,38.3,33.4,90,74,48,31.12,24.03,9,0,9,0.00
2013-12-24,68.0,49.0,38.9,46.5,40.4,35.6,90,75,43,31.92,22.09,4,0,4,0.00
2013-12-25,62.2,46.3,36.4,45.0,38.6,33.4,92,76,49,29.78,20.65,12,0,12,0.01
2013-12-26,64.2,47.0,36.7,44.5,37.5,33.5,91,72,39,31.51,17.17,9,0,9,0.00
2013-12-27,58.4,45.6,37.4,42.2,37.5,33.9,89,75,48,32.50,21.78,7,0,7,0.00
2013-12-28,66.2,45.0,33.3,42.8,35.7,30.3,90,72,36,31.64,18.14,4,0,4,0.01
2013-12-29,63.7,46.3,35.4,34.9,31.6,27.6,81,60,27,30.80,21.47,16,0,16,0.00
2013-12-30,60.5,45.5,35.9,42.5,36.9,31.9,88,74,47,32.01,24.12,5,0,5,0.00
2013-12-31,62.4,45.1,36.1,43.1,35.5,32.7,89,72,36,31.51,21.96,8,0,8,0.00
2014-1-1,62.9,44.8,33.3,41.1,35.0,30.1,92,71,38,31.45,17.45,4,0,4,0.00
2014-1-2,65.7,48.3,36.7,41.0,36.7,32.6,86,67,36,32.01,17.45,8,0,8,0.00